CheckWX is a tool to help pilots better visualize weather data.  It is not intended as a substitute for an official pre-flight weather briefing.

01:53:18 UTC

KDEH METAR
Decorah Municipal Airport
Decorah, Iowa, USA
Current

18 mins ago

KDEH 200135Z AUTO 20007G12KT 170V230 10SM CLR 30/27 A2970 RMK AO2
Observed
Jul-20 @ 01:35 UTC
Wind
  • 200° at 7 KTS
  • Gusting to 12 KTS
Visibility
10 SM
Flight Rules
VFR
Cloud Levels
  • Clear skies
Temperature
30°C / 86°F
Dewpoint
27°C / 81°F
Heat Index
39°C / 102°F
Humidity
84%
Altimeter
29.7" Hg
Pressure
1005.72 hPa
Previous

38 mins ago

KDEH 200115Z AUTO 20007G15KT 170V230 10SM CLR 31/27 A2968 RMK AO2
Observed
Jul-20 @ 01:15 UTC
Wind
  • 200° at 7 KTS
  • Gusting to 15 KTS
Visibility
10 SM
Flight Rules
VFR
Cloud Levels
  • Clear skies
Temperature
31°C / 88°F
Dewpoint
27°C / 81°F
Heat Index
41°C / 106°F
Humidity
79%
Altimeter
29.68" Hg
Pressure
1005.12 hPa
Previous

58 mins ago

KDEH 200055Z AUTO 19008G14KT 160V220 10SM CLR 31/27 A2969 RMK AO2
Observed
Jul-20 @ 00:55 UTC
Wind
  • 190° at 8 KTS
  • Gusting to 14 KTS
Visibility
10 SM
Flight Rules
VFR
Cloud Levels
  • Clear skies
Temperature
31°C / 88°F
Dewpoint
27°C / 81°F
Heat Index
41°C / 106°F
Humidity
79%
Altimeter
29.69" Hg
Pressure
1005.42 hPa